Data for 07/11/2009

Time Sea-Level Adjusted Pressure Absolute Pressure Temperature Relative Humidity Dew Point   
(mb) (inHg) (mb) (inHg) (C) (F) (%) (C) (F)
00:05 1023 30.21 853 25.19 15.8 60.4 41 2.8 37
00:10 1023 30.21 853 25.19 15.4 59.7 42 2.5 36.5
00:15 1023 30.21 853 25.19 15.4 59.7 42 2.6 36.6
00:20 1023 30.21 852 25.16 15.2 59.4 42 2.5 36.5
00:25 1023 30.21 852 25.16 15.3 59.5 41 2.1 35.8
00:30 1023 30.21 852 25.16 15.9 60.6 36 0.9 33.5
00:35 1023 30.21 852 25.16 16.6 61.8 33 0.4 32.7
00:40 1023 30.21 852 25.16 16.9 62.5 33 0.5 32.9
00:45 1023 30.21 852 25.16 17.1 62.7 32 0.2 32.4
00:50 1023 30.21 852 25.16 17.3 63.2 31 0.2 32.4
00:55 1023 30.21 852 25.16 17.3 63.2 32 0.4 32.7
01:00 1023 30.21 852 25.16 17 62.7 33 0.7 33.3
01:05 1023 30.21 852 25.16 16.8 62.3 33 0.6 33
01:10 1023 30.21 852 25.16 16.7 62 34 0.7 33.3
01:15 1023 30.21 852 25.16 16.7 62.1 33 0.3 32.6
01:20 1023 30.21 852 25.16 16.8 62.3 33 0.5 32.9
01:25 1023 30.21 852 25.16 16.9 62.4 32 0.2 32.4
01:30 1023 30.21 852 25.16 17 62.5 33 0.6 33.1
01:35 1023 30.21 852 25.16 16.6 61.8 35 1.3 34.3
01:40 1023 30.21 852 25.16 16.1 60.9 36 1.1 34
01:45 1023 30.21 852 25.16 15.8 60.4 37 1.3 34.3
01:50 1023 30.21 852 25.16 15.6 60 38 1.3 34.3
01:55 1023 30.21 852 25.16 15.5 59.9 38 1.3 34.4
02:00 1023 30.21 852 25.16 15.3 59.5 38 1.2 34.2
02:05 1023 30.21 852 25.16 15.2 59.3 39 1.4 34.5
02:10 1023 30.21 852 25.16 14.9 58.9 40 1.5 34.8
02:15 1023 30.21 852 25.16 14.7 58.4 41 1.6 34.8
02:20 1023 30.21 852 25.16 14.5 58.1 42 1.7 35
02:25 1023 30.21 852 25.16 14.3 57.8 42 1.8 35.2
02:30 1023 30.21 852 25.16 14.1 57.4 43 1.8 35.3
02:35 1023 30.21 852 25.16 14 57.2 43 1.8 35.2
02:40 1023 30.21 852 25.16 14.2 57.5 42 1.7 35
02:45 1023 30.21 852 25.16 14.3 57.7 43 1.9 35.5
02:50 1023 30.21 852 25.16 14.2 57.5 43 1.9 35.4
02:55 1023 30.21 852 25.16 14.2 57.5 43 1.9 35.5
03:00 1023 30.21 852 25.16 14.2 57.5 44 2.1 35.7
03:05 1023 30.21 852 25.16 14.2 57.5 44 2.2 36
03:10 1023 30.21 852 25.16 13.9 57.1 47 3 37.3
03:15 1023 30.21 852 25.16 13.5 56.3 49 2.9 37.3
03:20 1023 30.21 852 25.16 13.3 55.9 49 2.9 37.3
03:25 1023 30.21 852 25.16 13.3 55.9 51 3.5 38.3
03:30 1023 30.21 852 25.16 13.3 56 49 2.9 37.2
03:35 1023 30.21 852 25.16 13.6 56.4 48 2.7 36.9
03:40 1023 30.21 852 25.16 13.7 56.6 47 2.8 37
03:45 1023 30.21 852 25.16 13.7 56.7 50 3.5 38.3
03:50 1023 30.21 852 25.16 13.4 56.1 54 4.2 39.6
03:55 1023 30.21 853 25.19 12.7 54.8 56 4.1 39.3
04:00 1023 30.21 853 25.19 12.5 54.5 54 3.6 38.5
04:05 1023 30.21 853 25.19 12.7 54.9 53 3.4 38
04:10 1023 30.21 853 25.19 12.6 54.7 54 3.5 38.4
04:15 1023 30.21 853 25.19 12.6 54.6 54 3.5 38.2
04:20 1023 30.21 853 25.19 12.6 54.7 52 3 37.4
04:25 1023 30.21 853 25.19 12.7 54.8 53 3.5 38.3
04:30 1023 30.21 853 25.19 12.4 54.2 57 4.1 39.4
04:35 1023 30.21 852 25.16 12.1 53.7 56 3.7 38.6
04:40 1023 30.21 853 25.19 11.9 53.5 58 4.1 39.3
04:45 1023 30.21 853 25.19 11.8 53.3 58 4 39.1
04:50 1023 30.21 853 25.19 11.8 53.2 60 4.3 39.8
04:55 1023 30.21 853 25.19 11.6 52.8 61 4.4 39.8
05:00 1023 30.21 853 25.19 11.5 52.6 59 3.8 38.8
05:05 1023 30.21 853 25.19 11.6 52.9 59 3.9 39
05:10 1023 30.21 853 25.19 11.6 52.9 60 4.2 39.5
05:15 1023 30.21 853 25.19 11.3 52.4 62 4.3 39.8
05:20 1023 30.21 853 25.19 11.1 52 60 3.8 38.8
05:25 1023 30.21 853 25.19 11.3 52.4 60 4 39.1
05:30 1023 30.21 853 25.19 11.4 52.5 58 3.6 38.4
05:35 1023 30.21 853 25.19 11.6 52.9 58 3.6 38.5
05:40 1023 30.21 853 25.19 11.8 53.2 58 3.7 38.7
05:45 1023 30.21 853 25.19 11.8 53.2 56 3.5 38.2
05:50 1023 30.21 853 25.19 11.8 53.2 57 3.7 38.6
05:55 1024 30.24 853 25.19 11.8 53.3 57 3.6 38.4
06:00 1024 30.24 853 25.19 12 53.6 58 4.1 39.4
06:05 1024 30.24 853 25.19 11.8 53.3 57 3.5 38.4
06:10 1024 30.24 853 25.19 12.1 53.8 55 3.5 38.2
06:15 1024 30.24 853 25.19 12.2 53.9 58 4.1 39.4
06:20 1024 30.24 853 25.19 11.8 53.2 60 4.4 39.9
06:25 1024 30.24 853 25.19 11.2 52.1 63 4.5 40.1
06:30 1024 30.24 853 25.19 11 51.9 62 4 39.2
06:35 1024 30.24 853 25.19 11.3 52.4 61 4.1 39.4
06:40 1024 30.24 853 25.19 11.3 52.4 63 4.5 40.1
06:45 1024 30.24 853 25.19 11 51.9 61 3.9 39
06:50 1024 30.24 853 25.19 11.6 52.8 59 3.9 39
06:55 1024 30.24 853 25.19 12.2 53.9 57 4 39.2
07:00 1024 30.24 853 25.19 12.2 54 58 4.4 39.8
07:05 1024 30.24 853 25.19 12 53.7 57 3.9 39
07:10 1024 30.24 853 25.19 11.9 53.5 62 5 41
07:15 1024 30.24 853 25.19 11.3 52.3 64 4.8 40.6
07:20 1024 30.24 853 25.19 11.5 52.6 60 4.1 39.3
07:25 1024 30.24 853 25.19 11.9 53.5 59 4.3 39.8
07:30 1024 30.24 853 25.19 12.2 54 58 4.3 39.8
07:35 1024 30.24 853 25.19 12.4 54.3 59 4.7 40.4
07:40 1024 30.24 853 25.19 12.4 54.4 57 4.3 39.7
07:45 1024 30.24 853 25.19 12.8 55 55 4.1 39.4
07:50 1024 30.24 853 25.19 13.2 55.8 54 4.1 39.5
07:55 1024 30.24 853 25.19 13.5 56.3 55 4.7 40.5
08:00 1024 30.24 853 25.19 13.6 56.5 59 5.7 42.3
08:05 1024 30.24 853 25.19 13.6 56.4 58 5.5 42
08:10 1024 30.24 853 25.19 13.6 56.4 60 5.9 42.7
08:15 1024 30.24 853 25.19 13.8 56.8 59 6.1 42.9
08:20 1024 30.24 853 25.19 13.7 56.7 60 6.2 43.2
08:25 1024 30.24 853 25.19 14.1 57.4 59 6.3 43.3
08:30 1024 30.24 853 25.19 14.7 58.4 56 6.2 43.1
08:35 1024 30.24 853 25.19 14.9 58.8 55 5.9 42.6
08:40 1024 30.24 853 25.19 15 58.9 57 6.5 43.7
08:45 1024 30.24 853 25.19 15.3 59.6 56 6.5 43.8
08:50 1024 30.24 853 25.19 16 60.7 53 6.5 43.7
08:55 1024 30.24 853 25.19 16.8 62.2 51 6.7 44.1
09:00 1024 30.24 853 25.19 17 62.7 47 5.6 42.2
09:05 1024 30.24 853 25.19 17.5 63.5 44 5.2 41.3
09:10 1024 30.24 853 25.19 17.4 63.2 48 6.3 43.3
09:15 1024 30.24 853 25.19 17.8 64.1 47 6.4 43.5
09:20 1024 30.24 853 25.19 18.1 64.6 43 5.6 42.1
09:25 1024 30.24 853 25.19 18.2 64.8 42 5.3 41.6
09:30 1024 30.24 853 25.19 18.2 64.8 41 5 40.9
09:35 1024 30.24 853 25.19 18.8 65.8 39 4.8 40.6
09:40 1024 30.24 853 25.19 19.6 67.2 39 5.3 41.5
09:45 1024 30.24 853 25.19 19.8 67.6 38 5.4 41.7
09:50 1024 30.24 853 25.19 19.7 67.4 38 5 41.1
09:55 1024 30.24 853 25.19 19.7 67.4 39 5.5 41.9
10:00 1024 30.24 853 25.19 19.7 67.4 38 5.2 41.4
10:05 1024 30.24 853 25.19 20.2 68.4 32 3.1 37.7
10:10 1024 30.24 853 25.19 20.2 68.3 33 3.4 38.1
10:15 1024 30.24 853 25.19 21 69.8 31 3.2 37.8
10:20 1024 30.24 853 25.19 21.6 71 30 3.3 37.9
10:25 1024 30.24 853 25.19 22.7 72.8 29 3.9 39
10:30 1024 30.24 853 25.19 23.1 73.7 28 4.1 39.3
10:35 1024 30.24 853 25.19 22.2 72 30 4.2 39.5
10:40 1024 30.24 853 25.19 21.8 71.2 30 3.8 38.9
10:45 1024 30.24 853 25.19 22.3 72.1 28 3.1 37.6
10:50 1024 30.24 853 25.19 23 73.3 28 3.7 38.6
10:55 1024 30.24 853 25.19 23.4 74.2 27 3.4 38.1
11:00 1024 30.24 853 25.19 23.2 73.7 29 4.4 40
11:05 1024 30.24 853 25.19 21.9 71.3 28 2.6 36.7
11:10 1024 30.24 853 25.19 22.8 73 28 3.5 38.3
11:15 1024 30.24 853 25.19 23.5 74.2 27 3.4 38.2
11:20 1024 30.24 853 25.19 23.3 73.9 28 4.1 39.3
11:25 1024 30.24 853 25.19 23 73.4 29 4.2 39.5
11:30 1024 30.24 853 25.19 22.6 72.6 27 2.9 37.2
11:35 1024 30.24 853 25.19 22.8 73.1 27 3.3 38
11:40 1024 30.24 853 25.19 24 75.3 26 3.6 38.4
11:45 1024 30.24 853 25.19 24.3 75.7 26 3.6 38.5
11:50 1024 30.24 853 25.19 23.9 75.1 28 4.3 39.8
11:55 1024 30.24 853 25.19 24.3 75.8 27 4.6 40.2
12:00 1024 30.24 853 25.19 24.3 75.7 29 5.2 41.3
12:05 1024 30.24 853 25.19 24.6 76.2 29 5.6 42.1
12:10 1024 30.24 853 25.19 24.6 76.2 29 5.7 42.3
12:15 1024 30.24 853 25.19 24.9 76.8 28 5.5 42
12:20 1024 30.24 853 25.19 24.7 76.5 27 4.6 40.3
12:25 1023 30.21 853 25.19 25 76.9 28 5.5 42
12:30 1023 30.21 853 25.19 25.1 77.1 26 4.4 39.9
12:35 1023 30.21 853 25.19 25.3 77.5 26 4.8 40.6
12:40 1023 30.21 853 25.19 25.5 77.8 26 5 41.1
12:45 1023 30.21 852 25.16 26.2 79.1 26 5.3 41.5
12:50 1023 30.21 852 25.16 26.4 79.4 24 4.3 39.8
12:55 1023 30.21 852 25.16 26.4 79.5 26 5.4 41.6
13:00 1023 30.21 852 25.16 26.6 79.9 26 5.8 42.5
13:05 1023 30.21 852 25.16 25.8 78.4 26 5.2 41.3
13:10 1023 30.21 852 25.16 26.4 79.6 24 4.5 40.1
13:15 1023 30.21 852 25.16 26.7 80.1 26 5.7 42.2
13:20 1023 30.21 852 25.16 27 80.5 23 4.6 40.3
13:25 1023 30.21 852 25.16 26.4 79.5 24 4.7 40.5
13:30 1023 30.21 852 25.16 27.1 80.8 25 5.8 42.5
13:35 1023 30.21 852 25.16 27.1 80.8 25 5.6 42.1
13:40 1023 30.21 852 25.16 26.7 80.1 25 5.5 41.8
13:45 1023 30.21 852 25.16 26 78.8 26 5.3 41.6
13:50 1023 30.21 852 25.16 26.5 79.6 27 6.1 43
13:55 1023 30.21 852 25.16 26.7 80.1 26 6.1 43
14:00 1023 30.21 852 25.16 26.5 79.6 29 7.1 44.7
14:05 1023 30.21 852 25.16 25.3 77.5 30 6.6 43.9
14:10 1023 30.21 852 25.16 25.5 77.8 30 7 44.6
14:15 1023 30.21 852 25.16 26.3 79.3 28 6.5 43.7
14:20 1023 30.21 852 25.16 26.9 80.4 26 6.2 43.1
14:25 1023 30.21 852 25.16 27.4 81.3 26 6.7 44
14:30 1023 30.21 852 25.16 27.6 81.7 24 5.7 42.2
14:35 1023 30.21 852 25.16 27.7 81.9 25 5.9 42.7
14:40 1023 30.21 852 25.16 28.1 82.5 24 5.8 42.5
14:45 1023 30.21 852 25.16 27.8 82.1 24 5.5 42
14:50 1023 30.21 852 25.16 28 82.5 24 6.1 43
14:55 1023 30.21 852 25.16 27.9 82.3 25 6.5 43.6
15:00 1023 30.21 852 25.16 28 82.3 24 6 42.8
15:05 1023 30.21 852 25.16 28.4 83.1 24 6.1 42.9
15:10 1023 30.21 852 25.16 28.8 83.8 22 5.3 41.5
15:15 1023 30.21 852 25.16 28.8 83.8 22 5.5 41.9
15:20 1023 30.21 852 25.16 29.1 84.4 21 5 41.1
15:25 1022 30.18 852 25.16 29 84.2 22 5.7 42.2
15:30 1022 30.18 852 25.16 28.7 83.7 23 5.6 42
15:35 1022 30.18 852 25.16 28.6 83.4 23 5.7 42.2
15:40 1022 30.18 852 25.16 28.5 83.3 23 5.9 42.6
15:45 1022 30.18 852 25.16 28.3 82.9 22 5.2 41.3
15:50 1022 30.18 852 25.16 28.1 82.6 22 4.4 39.9
15:55 1022 30.18 852 25.16 28.5 83.3 22 5.3 41.6
16:00 1022 30.18 852 25.16 28.3 83 22 4.7 40.5
16:05 1022 30.18 852 25.16 27.8 82 22 4.5 40
16:10 1022 30.18 852 25.16 27.6 81.7 24 5.6 42.1
16:15 1022 30.18 852 25.16 27.6 81.6 24 5.3 41.6
16:20 1022 30.18 852 25.16 27.5 81.6 24 5.3 41.5
16:25 1022 30.18 851 25.13 27.7 81.9 24 5.4 41.7
16:30 1022 30.18 851 25.13 28.1 82.6 22 4.6 40.3
16:35 1022 30.18 851 25.13 28.3 82.9 23 5.5 41.8
16:40 1022 30.18 851 25.13 28.6 83.5 24 6.4 43.5
16:45 1022 30.18 851 25.13 28.9 84 23 6.1 42.9
16:50 1022 30.18 851 25.13 29.1 84.4 21 4.6 40.3
16:55 1022 30.18 851 25.13 29.3 84.7 21 4.7 40.5
17:00 1022 30.18 851 25.13 29.3 84.7 20 4.4 40
17:05 1022 30.18 851 25.13 29 84.2 20 4.4 39.9
17:10 1022 30.18 851 25.13 28.8 83.9 22 5.5 42
17:15 1022 30.18 851 25.13 28.2 82.7 24 6.2 43.1
17:20 1022 30.18 851 25.13 27.7 81.9 25 6.2 43.1
17:25 1022 30.18 851 25.13 27.1 80.8 26 6 42.8
17:30 1022 30.18 851 25.13 27 80.6 26 5.9 42.7
17:35 1022 30.18 851 25.13 27.2 81 27 6.9 44.5
17:40 1022 30.18 851 25.13 26.4 79.5 30 7.7 45.9
17:45 1022 30.18 851 25.13 26 78.9 30 7.5 45.5
17:50 1022 30.18 851 25.13 26 78.8 29 6.8 44.3
17:55 1022 30.18 851 25.13 25.8 78.4 29 6.5 43.8
18:00 1022 30.18 851 25.13 25.7 78.2 31 7.4 45.3
18:05 1022 30.18 851 25.13 25.9 78.5 32 8.3 46.9
18:10 1022 30.18 851 25.13 26.4 79.4 30 7.9 46.1
18:15 1022 30.18 851 25.13 26.4 79.6 29 7.2 44.9
18:20 1022 30.18 851 25.13 26.5 79.6 27 6.4 43.6
18:25 1022 30.18 851 25.13 26.5 79.8 27 6.4 43.6
18:30 1022 30.18 851 25.13 26.4 79.5 27 6 42.8
18:35 1022 30.18 851 25.13 26.3 79.3 27 6 42.8
18:40 1022 30.18 851 25.13 26.1 78.9 29 6.7 44
18:45 1022 30.18 851 25.13 26 78.8 27 6 42.9
18:50 1021 30.15 851 25.13 26 78.9 27 5.6 42.1
18:55 1021 30.15 851 25.13 26.3 79.3 26 5.6 42.1
19:00 1021 30.15 851 25.13 26.1 78.9 29 7.1 44.8
19:05 1021 30.15 851 25.13 25.6 78 30 6.8 44.2
19:10 1021 30.15 851 25.13 25.5 77.9 30 6.9 44.4
19:15 1022 30.18 851 25.13 25.5 77.8 30 7.1 44.7
19:20 1022 30.18 851 25.13 25.4 77.7 30 7 44.6
19:25 1022 30.18 851 25.13 25.4 77.8 30 6.9 44.5
19:30 1022 30.18 851 25.13 25.4 77.7 30 7 44.7
19:35 1022 30.18 851 25.13 25.4 77.6 31 7 44.7
19:40 1022 30.18 851 25.13 25.4 77.8 36 9.4 48.9
19:45 1022 30.18 851 25.13 24.8 76.6 37 9.3 48.7
19:50 1022 30.18 851 25.13 24.4 75.9 34 7.6 45.6
19:55 1022 30.18 851 25.13 24.3 75.8 34 7.6 45.7
20:00 1022 30.18 851 25.13 24.3 75.7 33 7.2 45
20:05 1022 30.18 851 25.13 24.2 75.5 33 7.3 45.1
20:10 1022 30.18 851 25.13 23.9 75.1 33 6.8 44.3
20:15 1021 30.15 851 25.13 23.9 74.9 33 6.8 44.2
20:20 1022 30.18 851 25.13 23.7 74.7 33 6.9 44.4
20:25 1022 30.18 851 25.13 23.6 74.6 33 6.7 44.1
20:30 1022 30.18 851 25.13 23.6 74.5 33 6.4 43.6
20:35 1022 30.18 851 25.13 23.7 74.6 36 7.9 46.2
20:40 1022 30.18 851 25.13 23.5 74.3 36 7.8 46.1
20:45 1022 30.18 852 25.16 23.2 73.7 39 8.6 47.5
20:50 1023 30.21 852 25.16 22.4 72.3 40 8.2 46.8
20:55 1023 30.21 852 25.16 22.7 72.9 37 7.5 45.6
21:00 1023 30.21 852 25.16 23 73.4 37 7.7 45.9
21:05 1023 30.21 852 25.16 23.3 74 30 5.2 41.3
21:10 1023 30.21 852 25.16 23.8 74.9 27 3.9 39
21:15 1023 30.21 852 25.16 24.1 75.4 25 3.3 37.9
21:20 1022 30.18 852 25.16 24.1 75.5 26 3.9 39
21:25 1022 30.18 851 25.13 24 75.3 24 2.5 36.4
21:30 1022 30.18 851 25.13 24.3 75.7 28 4.6 40.3
21:35 1022 30.18 851 25.13 24.2 75.6 25 3.2 37.7
21:40 1022 30.18 852 25.16 23.9 75 27 4.1 39.3
21:45 1022 30.18 852 25.16 23.5 74.2 29 4.8 40.6
21:50 1022 30.18 852 25.16 23.3 73.9 30 4.9 40.7
21:55 1023 30.21 852 25.16 23.1 73.6 31 5.2 41.3
22:00 1023 30.21 852 25.16 23 73.5 31 5 41
22:05 1023 30.21 852 25.16 23 73.3 32 5.5 41.9
22:10 1023 30.21 852 25.16 22.7 72.9 32 5.2 41.4
22:15 1023 30.21 852 25.16 22.5 72.6 32 5.4 41.8
22:20 1023 30.21 852 25.16 22.5 72.5 32 5.4 41.8
22:25 1023 30.21 852 25.16 22.3 72.2 32 5.2 41.3
22:30 1023 30.21 852 25.16 22.5 72.5 31 4.6 40.4
22:35 1023 30.21 852 25.16 22.6 72.8 31 4.8 40.7
22:40 1023 30.21 852 25.16 22.6 72.7 31 4.9 40.9
22:45 1023 30.21 852 25.16 22.5 72.5 31 4.8 40.6
22:50 1023 30.21 852 25.16 22.7 72.8 31 4.9 40.8
22:55 1023 30.21 852 25.16 22.5 72.5 31 4.9 40.7
23:00 1023 30.21 852 25.16 22.4 72.4 31 4.9 40.8
23:05 1023 30.21 852 25.16 22.4 72.2 32 5 41
23:10 1023 30.21 852 25.16 22.2 72 33 5.2 41.3
23:15 1023 30.21 852 25.16 22 71.6 33 5.3 41.6
23:20 1023 30.21 852 25.16 21.9 71.3 34 5.4 41.7
23:25 1023 30.21 852 25.16 21.7 71.1 34 5.4 41.7
23:30 1023 30.21 852 25.16 21.7 71 35 5.6 42
23:35 1023 30.21 852 25.16 21.5 70.8 36 5.8 42.5
23:40 1023 30.21 852 25.16 21.3 70.4 36 5.8 42.4
23:45 1023 30.21 852 25.16 21.3 70.4 36 5.8 42.4
23:50 1023 30.21 852 25.16 21.2 70.2 37 6 42.9
23:55 1023 30.21 852 25.16 21.1 70 36 5.8 42.4
24:00 1023 30.21 852 25.16 21 69.8 37 5.9 42.6